createdAt,value
2022-08-09T00:01:17.245Z,99308.28
2022-08-09T00:04:06.028Z,99305.03
2022-08-09T00:17:08.172Z,99295.09
2022-08-09T00:19:48.272Z,99293.44
2022-08-09T00:22:24.339Z,99296.13
2022-08-09T00:25:22.994Z,99301.03
2022-08-09T00:27:58.052Z,99297.28
2022-08-09T00:30:33.747Z,99301.88
2022-08-09T00:44:10.306Z,99312.53
2022-08-09T00:46:56.264Z,99311.47
2022-08-09T00:49:40.276Z,99312.94
2022-08-09T00:52:15.912Z,99304.41
2022-08-09T00:54:58.189Z,99305.44
2022-08-09T01:11:55.583Z,99314.28
2022-08-09T01:14:43.214Z,99307.28
2022-08-09T01:17:26.085Z,99305.56
2022-08-09T01:20:17.246Z,99308.28
2022-08-09T01:24:03.398Z,99316.94
2022-08-09T01:36:40.206Z,99323.44
2022-08-09T01:39:24.273Z,99322.72
2022-08-09T01:42:10.805Z,99332.19
2022-08-09T01:44:54.248Z,99326.94
2022-08-09T01:47:32.809Z,99332.50
2022-08-09T01:50:36.859Z,99336.19
2022-08-09T02:03:52.254Z,99327.13
2022-08-09T02:06:27.387Z,99325.59
2022-08-09T02:09:18.245Z,99326.91
2022-08-09T02:11:57.694Z,99334.66
2022-08-09T02:14:34.246Z,99332.94
2022-08-09T02:31:19.225Z,99337.88
2022-08-09T02:34:13.620Z,99333.78
2022-08-09T02:37:05.771Z,99336.78
2022-08-09T02:39:55.210Z,99338.81
2022-08-09T02:42:40.171Z,99329.53
2022-08-09T02:45:31.233Z,99341.66
2022-08-09T02:56:05.239Z,99343.09
2022-08-09T02:58:51.253Z,99343.09
2022-08-09T03:01:42.844Z,99345.09
2022-08-09T03:04:30.232Z,99348.78
2022-08-09T03:07:12.564Z,99341.66
2022-08-09T03:09:59.337Z,99340.25
2022-08-09T03:23:14.962Z,99334.72
2022-08-09T03:26:03.162Z,99337.44
2022-08-09T03:28:45.239Z,99337.59
2022-08-09T03:31:29.239Z,99338.03
2022-08-09T03:34:05.363Z,99344.50
2022-08-09T03:50:56.835Z,99339.59
2022-08-09T03:53:37.809Z,99342.72
2022-08-09T03:56:11.993Z,99343.28
2022-08-09T03:58:47.272Z,99340.41
2022-08-09T04:01:24.899Z,99347.56
2022-08-09T04:04:02.261Z,99347.88
2022-08-09T04:17:21.234Z,99350.44
2022-08-09T04:19:56.256Z,99349.75
2022-08-09T04:22:31.871Z,99347.63
2022-08-09T04:25:08.472Z,99361.88
2022-08-09T04:27:49.459Z,99356.28
2022-08-09T04:30:26.125Z,99360.72
2022-08-09T04:43:26.172Z,99369.97
2022-08-09T04:46:07.592Z,99367.59
2022-08-09T04:48:58.491Z,99364.16
2022-08-09T04:51:39.253Z,99364.47
2022-08-09T04:54:12.851Z,99371.44
2022-08-09T04:56:47.214Z,99363.31
2022-08-09T04:59:22.958Z,99371.84
2022-08-09T05:12:12.586Z,99373.28
2022-08-09T05:14:55.245Z,99386.38
2022-08-09T05:18:38.648Z,99378.81
2022-08-09T05:20:29.553Z,99379.50
2022-08-09T05:23:55.201Z,99374.41
2022-08-09T05:26:22.253Z,99380.94
2022-08-09T05:36:47.211Z,99390.88
2022-08-09T05:39:29.994Z,99397.56
2022-08-09T05:42:10.311Z,99391.56
2022-08-09T05:45:03.452Z,99395.38
2022-08-09T05:47:45.577Z,99403.03
2022-08-09T05:50:50.767Z,99404.47
2022-08-09T06:04:05.910Z,99410.09
2022-08-09T06:06:43.787Z,99403.22
2022-08-09T06:09:54.160Z,99408.03
2022-08-09T06:12:20.852Z,99404.56
2022-08-09T06:14:54.312Z,99403.97
2022-08-09T06:17:27.853Z,99412.16
2022-08-09T06:20:22.232Z,99402.41
2022-08-09T06:30:16.055Z,99410.84
2022-08-09T06:33:00.230Z,99423.59
2022-08-09T06:35:57.151Z,99427.06
2022-08-09T06:38:38.211Z,99422.22
2022-08-09T06:41:18.835Z,99424.84
2022-08-09T06:44:00.259Z,99435.47
2022-08-09T06:57:13.351Z,99430.91
2022-08-09T07:00:52.320Z,99423.97
2022-08-09T07:02:49.413Z,99430.13
2022-08-09T07:05:23.832Z,99431.19
2022-08-09T07:07:59.491Z,99425.13
2022-08-09T07:10:35.812Z,99429.91
2022-08-09T07:23:56.497Z,99439.03
2022-08-09T07:26:32.253Z,99450.47
2022-08-09T07:29:12.203Z,99445.38
2022-08-09T07:31:47.993Z,99452.19
2022-08-09T07:34:23.201Z,99451.69
2022-08-09T07:37:02.469Z,99449.81
2022-08-09T07:39:46.481Z,99450.53
2022-08-09T07:50:19.157Z,99462.56
2022-08-09T07:53:16.800Z,99470.28
2022-08-09T07:56:27.192Z,99461.63
2022-08-09T07:59:12.415Z,99467.59
2022-08-09T08:01:53.117Z,99463.50
2022-08-09T08:04:34.256Z,99455.13
2022-08-09T08:17:52.924Z,99455.66
2022-08-09T08:20:32.382Z,99450.22
2022-08-09T08:23:16.829Z,99450.56
2022-08-09T08:26:06.109Z,99446.78
2022-08-09T08:28:47.173Z,99459.06
2022-08-09T08:45:50.786Z,99462.47
2022-08-09T08:48:51.107Z,99454.47
2022-08-09T08:51:26.068Z,99454.63
2022-08-09T08:54:29.702Z,99459.25
2022-08-09T08:57:04.770Z,99453.63
2022-08-09T08:59:53.951Z,99459.06
2022-08-09T09:13:09.755Z,99459.38
2022-08-09T09:15:49.349Z,99455.97
2022-08-09T09:18:23.228Z,99455.97
2022-08-09T09:20:58.759Z,99455.63
2022-08-09T09:23:49.925Z,99458.69
2022-08-09T09:37:36.231Z,99454.16
2022-08-09T09:40:11.789Z,99444.25
2022-08-09T09:43:03.187Z,99448.81
2022-08-09T09:46:41.779Z,99458.19
2022-08-09T09:49:03.190Z,99450.13
2022-08-09T10:06:03.637Z,99443.28
2022-08-09T10:08:42.523Z,99437.13
2022-08-09T10:11:53.763Z,99440.56
2022-08-09T10:14:35.199Z,99439.81
2022-08-09T10:17:38.848Z,99442.66
2022-08-09T10:20:35.478Z,99427.44
2022-08-09T10:34:08.451Z,99425.34
2022-08-09T10:36:45.127Z,99431.78
2022-08-09T10:39:19.629Z,99426.25
2022-08-09T10:41:53.696Z,99431.28
2022-08-09T10:44:33.179Z,99432.06
2022-08-09T10:57:48.752Z,99429.00
2022-08-09T11:01:11.053Z,99420.41
2022-08-09T11:03:53.307Z,99428.75
2022-08-09T11:06:29.616Z,99426.09
2022-08-09T11:09:16.112Z,99428.81
2022-08-09T11:25:55.171Z,99405.97
2022-08-09T11:28:56.959Z,99410.16
2022-08-09T11:31:49.742Z,99409.31
2022-08-09T11:34:45.204Z,99407.34
2022-08-09T11:37:27.960Z,99406.47
2022-08-09T11:40:18.010Z,99406.19
2022-08-09T11:54:01.494Z,99391.66
2022-08-09T11:56:41.529Z,99390.38
2022-08-09T11:59:37.990Z,99390.44
2022-08-09T12:02:18.009Z,99393.84
2022-08-09T12:05:17.783Z,99395.91
2022-08-09T12:18:35.240Z,99389.66
2022-08-09T12:21:32.558Z,99389.16
2022-08-09T12:24:28.254Z,99385.84
2022-08-09T12:28:59.532Z,99383.19
2022-08-09T12:30:36.675Z,99382.03
2022-08-09T12:47:00.201Z,99365.78
2022-08-09T12:49:51.126Z,99362.03
2022-08-09T12:52:42.924Z,99364.59
2022-08-09T12:56:15.669Z,99360.75
2022-08-09T12:58:34.064Z,99370.19
2022-08-09T13:01:29.511Z,99366.91
2022-08-09T13:11:42.296Z,99370.66
2022-08-09T13:14:40.527Z,99366.31
2022-08-09T13:17:44.056Z,99370.22
2022-08-09T13:20:23.572Z,99366.38
2022-08-09T13:23:01.390Z,99361.28
2022-08-09T13:25:54.435Z,99365.91
2022-08-09T13:41:54.162Z,99369.28
2022-08-09T13:42:04.974Z,99358.31
2022-08-09T13:44:46.278Z,99365.25
2022-08-09T13:47:30.983Z,99361.59
2022-08-09T13:50:30.957Z,99368.22
2022-08-09T14:07:10.248Z,99372.22
2022-08-09T14:09:51.256Z,99371.94
2022-08-09T14:12:26.908Z,99370.59
2022-08-09T14:15:00.259Z,99372.72
2022-08-09T14:18:16.681Z,99376.47
2022-08-09T14:20:36.289Z,99366.06
2022-08-09T14:33:52.342Z,99361.28
2022-08-09T14:36:29.208Z,99361.63
2022-08-09T14:39:20.324Z,99363.19
2022-08-09T14:42:30.752Z,99362.44
2022-08-09T14:46:54.366Z,99368.13
2022-08-09T14:58:48.290Z,99362.28
2022-08-09T15:01:29.890Z,99350.88
2022-08-09T15:04:04.270Z,99345.13
2022-08-09T15:06:49.753Z,99355.81
2022-08-09T15:10:07.481Z,99348.25
2022-08-09T15:12:23.869Z,99351.25
2022-08-09T15:15:13.096Z,99342.41
2022-08-09T15:25:41.181Z,99335.72
2022-08-09T15:28:20.115Z,99336.13
2022-08-09T15:31:14.577Z,99341.63
2022-08-09T15:34:31.775Z,99343.69
2022-08-09T15:36:53.724Z,99333.97
2022-08-09T15:39:44.039Z,99340.03
2022-08-09T15:53:07.026Z,99340.50
2022-08-09T15:56:04.566Z,99338.84
2022-08-09T15:58:59.269Z,99341.63
2022-08-09T16:01:35.377Z,99340.03
2022-08-09T16:04:23.324Z,99337.16
2022-08-09T16:21:00.312Z,99330.81
2022-08-09T16:23:40.248Z,99328.72
2022-08-09T16:26:34.129Z,99331.50
2022-08-09T16:29:21.285Z,99326.47
2022-08-09T16:32:33.673Z,99334.06
2022-08-09T16:35:19.184Z,99340.19
2022-08-09T16:45:35.233Z,99324.91
2022-08-09T16:48:43.400Z,99328.44
2022-08-09T16:51:18.187Z,99323.47
2022-08-09T16:54:25.425Z,99330.31
2022-08-09T16:56:49.510Z,99322.41
2022-08-09T16:59:24.270Z,99328.59
2022-08-09T17:12:38.825Z,99331.97
2022-08-09T17:15:31.213Z,99324.75
2022-08-09T17:18:15.334Z,99324.09
2022-08-09T17:20:52.879Z,99331.69
2022-08-09T17:24:20.953Z,99328.94
2022-08-09T17:26:29.382Z,99329.78
2022-08-09T17:39:52.874Z,99329.44
2022-08-09T17:42:40.930Z,99326.47
2022-08-09T17:45:27.302Z,99340.38
2022-08-09T17:48:16.257Z,99338.69
2022-08-09T17:50:56.361Z,99328.97
2022-08-09T17:53:43.470Z,99333.09
2022-08-09T17:56:28.771Z,99336.94
2022-08-09T18:06:06.328Z,99343.84
2022-08-09T18:08:49.125Z,99347.22
2022-08-09T18:11:23.959Z,99346.44
2022-08-09T18:14:10.734Z,99347.31
2022-08-09T18:16:55.644Z,99350.97
2022-08-09T18:21:01.122Z,99351.66
2022-08-09T18:32:47.242Z,99345.53
2022-08-09T18:35:59.161Z,99353.47
2022-08-09T18:38:28.865Z,99336.88
2022-08-09T18:41:03.305Z,99348.66
2022-08-09T18:43:37.004Z,99357.38
2022-08-09T18:46:49.687Z,99355.22
2022-08-09T19:00:16.717Z,99360.84
2022-08-09T19:02:54.243Z,99373.00
2022-08-09T19:06:02.074Z,99371.66
2022-08-09T19:08:23.885Z,99376.66
2022-08-09T19:11:08.305Z,99377.03
2022-08-09T19:13:51.118Z,99397.56
2022-08-09T19:16:36.507Z,99377.97
2022-08-09T19:26:51.536Z,99379.59
2022-08-09T19:30:21.477Z,99380.97
2022-08-09T19:32:31.339Z,99383.19
2022-08-09T19:35:14.252Z,99388.38
2022-08-09T19:37:56.089Z,99389.78
2022-08-09T19:40:42.360Z,99386.38
2022-08-09T19:53:56.622Z,99387.84
2022-08-09T19:56:34.036Z,99389.06
2022-08-09T19:59:39.033Z,99397.63
2022-08-09T20:02:18.172Z,99395.44
2022-08-09T20:05:11.737Z,99395.97
2022-08-09T20:21:56.487Z,99407.34
2022-08-09T20:24:40.749Z,99410.59
2022-08-09T20:27:14.727Z,99416.38
2022-08-09T20:29:50.325Z,99412.13
2022-08-09T20:32:42.075Z,99412.66
2022-08-09T20:35:24.244Z,99415.75
2022-08-09T20:48:36.332Z,99408.28
2022-08-09T20:51:19.244Z,99410.50
2022-08-09T20:54:00.284Z,99407.94
2022-08-09T20:56:38.080Z,99416.13
2022-08-09T20:59:24.921Z,99410.00
2022-08-09T21:13:08.305Z,99410.69
2022-08-09T21:15:52.114Z,99413.09
2022-08-09T21:18:35.357Z,99414.63
2022-08-09T21:21:46.821Z,99414.97
2022-08-09T21:24:32.623Z,99425.38
2022-08-09T21:41:11.285Z,99427.41
2022-08-09T21:43:58.000Z,99437.28
2022-08-09T21:46:32.365Z,99428.44
2022-08-09T21:49:07.448Z,99436.75
2022-08-09T21:51:43.770Z,99439.84
2022-08-09T21:54:18.306Z,99435.59
2022-08-09T22:07:41.294Z,99445.13
2022-08-09T22:10:23.272Z,99434.53
2022-08-09T22:13:11.408Z,99443.72
2022-08-09T22:15:45.866Z,99438.63
2022-08-09T22:18:19.287Z,99437.25
2022-08-09T22:20:57.945Z,99444.38
2022-08-09T22:33:49.201Z,99448.06
2022-08-09T22:36:45.788Z,99447.41
2022-08-09T22:39:57.463Z,99448.06
2022-08-09T22:42:23.282Z,99445.53
2022-08-09T22:45:00.192Z,99450.09
2022-08-09T23:01:40.368Z,99449.22
2022-08-09T23:04:13.805Z,99453.97
2022-08-09T23:09:28.286Z,99448.00
2022-08-09T23:12:02.067Z,99444.09
2022-08-09T23:14:42.296Z,99446.28
2022-08-09T23:27:57.229Z,99449.88
2022-08-09T23:30:51.977Z,99442.19
2022-08-09T23:33:32.405Z,99445.09
2022-08-09T23:36:07.592Z,99447.97
2022-08-09T23:38:48.578Z,99444.72
2022-08-09T23:41:29.050Z,99443.00
2022-08-09T23:54:27.539Z,99438.56
2022-08-09T23:57:08.304Z,99437.84
2022-08-09T23:59:45.026Z,99440.88
